Impacts METAR Board INFO
IDs:

KLAX - Los Angeles Intl, CA, US

Updated at: 1921 UTC 19 Jan 2018
Potential Impact None Slight Moderate High
Time19/07Z 19/08Z 19/09Z 19/10Z 19/11Z 19/12Z 19/13Z 19/14Z 19/15Z 19/16Z 19/17Z 19/18Z 19/19Z
VIS10 9 8 6 0.25 0.25 3 7 7 5 5 5 5
CIG-- -- -- 10 2 2 9 8 10 22 19 25 27
CoverFEWSCTFEWBKNOVXBKNBKNOVCOVCBKNBKNBKNBKN
FltCatVFRVFRVFRMVFRLIFRLIFRIFRIFRMVFRMVFRMVFRMVFRMVFR
WX------BRFGFGBCFG BRBCFG--BRBRHZHZ
WDir00090100809001101001301200
WSpd0 0 0 5 3 3 5 0 5 3 4 6 3
WGst-- -- -- -- -- -- -- -- -- -- -- -- --
Raw hourly METARs
KLAX 190653Z 00000KT 10SM FEW002 16/13 A3004 RMK AO2 SLP171 T01610133 $
KLAX 190753Z 00000KT 9SM SCT010 15/14 A3004 RMK AO2 SLP169 T01500139 402220122 $
KLAX 190853Z 00000KT 8SM FEW010 15/14 A3004 RMK AO2 SLP169 T01500139 58002 $
KLAX 190953Z 09005KT 6SM BR BKN010 13/13 A3003 RMK AO2 SLP167 VIS W 2 1/2 T01330128 $
KLAX 191053Z 10003KT 1/4SM R25L/1000V1400FT FG VV002 13/13 A3002 RMK AO2 SLP163 VIS W 1/2 T01280128 $
KLAX 191158Z 08003KT 1/4SM R25L/0600V1000FT FG BKN002 12/12 A3001 RMK AO2 VIS 1/8V3/4 T01220122 $
KLAX 191253Z 09005KT 3SM BCFG BR FEW000 SCT003 BKN009 12/12 A3000 RMK AO2 SLP157 VIS 1 1/2V4 VIS SE 1 FG FEW000 FG BANK E-S T01220122 $
KLAX 191353Z 00000KT 7SM BCFG FEW000 OVC008 14/14 A3001 RMK AO2 SLP163 CIG 006V010 FG FEW000 FG BANK SE T01390139 $
KLAX 191453Z 11005KT 7SM SCT009 OVC010 14/13 A3001 RMK AO2 SLP163 SCT V BKN T01440133 53001 $
KLAX 191553Z 10003KT 5SM BR SCT010 BKN022 15/14 A3003 RMK AO2 SLP167 T01500139
KLAX 191653Z 13004KT 5SM BR BKN019 BKN025 16/13 A3003 RMK AO2 SLP169 VIS N 2 T01560133
KLAX 191753Z 12006KT 5SM HZ SCT017 BKN025 16/13 A3003 RMK AO2 SLP167 T01610128 10161 20122 50005
KLAX 191853Z VRB03KT 5SM HZ SCT020 BKN027 17/12 A3002 RMK AO2 SLP163 T01670122